sensor_id;sensor_type;location;lat;lon;timestamp;P1;durP1;ratioP1;P2;durP2;ratioP2
53833;SDS011;39735;51.432;5.482;2023-01-01T00:02:01;39.58;;;8.93;;
53833;SDS011;39735;51.432;5.482;2023-01-01T00:04:26;16.70;;;6.05;;
53833;SDS011;39735;51.432;5.482;2023-01-01T00:06:52;42.17;;;5.55;;
53833;SDS011;39735;51.432;5.482;2023-01-01T00:09:18;26.70;;;6.38;;
53833;SDS011;39735;51.432;5.482;2023-01-01T00:12:02;46.15;;;7.78;;
53833;SDS011;39735;51.432;5.482;2023-01-01T00:14:27;48.08;;;7.88;;
53833;SDS011;39735;51.432;5.482;2023-01-01T00:16:53;23.25;;;6.28;;
53833;SDS011;39735;51.432;5.482;2023-01-01T00:19:19;23.17;;;6.97;;
53833;SDS011;39735;51.432;5.482;2023-01-01T00:21:45;47.80;;;7.18;;
53833;SDS011;39735;51.432;5.482;2023-01-01T00:24:10;24.23;;;4.97;;
53833;SDS011;39735;51.432;5.482;2023-01-01T00:26:36;33.38;;;5.68;;
53833;SDS011;39735;51.432;5.482;2023-01-01T00:29:01;14.18;;;4.38;;
53833;SDS011;39735;51.432;5.482;2023-01-01T00:31:28;22.65;;;7.32;;
53833;SDS011;39735;51.432;5.482;2023-01-01T00:33:53;35.45;;;5.80;;
53833;SDS011;39735;51.432;5.482;2023-01-01T00:36:21;39.55;;;6.47;;
53833;SDS011;39735;51.432;5.482;2023-01-01T00:38:47;23.73;;;4.65;;
53833;SDS011;39735;51.432;5.482;2023-01-01T00:41:13;64.95;;;6.35;;
53833;SDS011;39735;51.432;5.482;2023-01-01T00:43:39;20.80;;;3.15;;
53833;SDS011;39735;51.432;5.482;2023-01-01T00:46:06;35.75;;;5.28;;
53833;SDS011;39735;51.432;5.482;2023-01-01T00:48:31;23.83;;;4.72;;
53833;SDS011;39735;51.432;5.482;2023-01-01T00:50:57;29.33;;;6.53;;
53833;SDS011;39735;51.432;5.482;2023-01-01T00:53:22;33.58;;;4.68;;
53833;SDS011;39735;51.432;5.482;2023-01-01T00:55:48;15.07;;;3.42;;
53833;SDS011;39735;51.432;5.482;2023-01-01T00:58:15;15.23;;;4.40;;
53833;SDS011;39735;51.432;5.482;2023-01-01T01:00:41;32.47;;;5.97;;
53833;SDS011;39735;51.432;5.482;2023-01-01T01:03:07;14.43;;;5.10;;
53833;SDS011;39735;51.432;5.482;2023-01-01T01:05:34;30.42;;;5.28;;
53833;SDS011;39735;51.432;5.482;2023-01-01T01:08:01;32.33;;;4.20;;
53833;SDS011;39735;51.432;5.482;2023-01-01T01:10:26;25.70;;;4.72;;
53833;SDS011;39735;51.432;5.482;2023-01-01T01:12:52;21.55;;;4.93;;
53833;SDS011;39735;51.432;5.482;2023-01-01T01:15:17;26.23;;;4.97;;
53833;SDS011;39735;51.432;5.482;2023-01-01T01:17:43;20.17;;;5.60;;
53833;SDS011;39735;51.432;5.482;2023-01-01T01:20:08;119.38;;;10.30;;
53833;SDS011;39735;51.432;5.482;2023-01-01T01:22:34;30.98;;;5.63;;
53833;SDS011;39735;51.432;5.482;2023-01-01T01:25:00;23.75;;;3.35;;
53833;SDS011;39735;51.432;5.482;2023-01-01T01:27:25;17.65;;;3.67;;
53833;SDS011;39735;51.432;5.482;2023-01-01T01:29:51;30.23;;;4.40;;
53833;SDS011;39735;51.432;5.482;2023-01-01T01:32:17;22.85;;;4.32;;
53833;SDS011;39735;51.432;5.482;2023-01-01T01:34:42;22.52;;;5.88;;
53833;SDS011;39735;51.432;5.482;2023-01-01T01:37:07;19.38;;;4.03;;
53833;SDS011;39735;51.432;5.482;2023-01-01T01:39:33;28.08;;;3.33;;
53833;SDS011;39735;51.432;5.482;2023-01-01T01:41:59;20.10;;;3.85;;
53833;SDS011;39735;51.432;5.482;2023-01-01T01:47:44;13.07;;;2.78;;
53833;SDS011;39735;51.432;5.482;2023-01-01T01:52:36;35.20;;;3.60;;
53833;SDS011;39735;51.432;5.482;2023-01-01T01:55:04;23.65;;;5.07;;
53833;SDS011;39735;51.432;5.482;2023-01-01T01:57:31;15.93;;;6.18;;
53833;SDS011;39735;51.432;5.482;2023-01-01T01:59:56;26.17;;;5.25;;
53833;SDS011;39735;51.432;5.482;2023-01-01T02:02:26;7.95;;;2.45;;
53833;SDS011;39735;51.432;5.482;2023-01-01T02:04:56;24.40;;;4.07;;
53833;SDS011;39735;51.432;5.482;2023-01-01T02:07:22;30.05;;;4.43;;
53833;SDS011;39735;51.432;5.482;2023-01-01T02:09:50;20.30;;;4.00;;
53833;SDS011;39735;51.432;5.482;2023-01-01T02:12:15;17.70;;;3.17;;
53833;SDS011;39735;51.432;5.482;2023-01-01T02:14:41;10.52;;;3.42;;
53833;SDS011;39735;51.432;5.482;2023-01-01T02:17:08;43.63;;;4.50;;
53833;SDS011;39735;51.432;5.482;2023-01-01T02:19:43;17.42;;;2.58;;
53833;SDS011;39735;51.432;5.482;2023-01-01T02:22:16;31.08;;;3.17;;
53833;SDS011;39735;51.432;5.482;2023-01-01T02:24:55;24.33;;;3.17;;
53833;SDS011;39735;51.432;5.482;2023-01-01T02:30:01;32.40;;;2.83;;
53833;SDS011;39735;51.432;5.482;2023-01-01T02:32:45;16.00;;;4.30;;
53833;SDS011;39735;51.432;5.482;2023-01-01T02:35:18;17.20;;;3.08;;
53833;SDS011;39735;51.432;5.482;2023-01-01T02:37:59;15.82;;;4.45;;
53833;SDS011;39735;51.432;5.482;2023-01-01T02:40:27;11.27;;;3.45;;
53833;SDS011;39735;51.432;5.482;2023-01-01T02:42:54;14.95;;;2.78;;
53833;SDS011;39735;51.432;5.482;2023-01-01T02:45:20;18.80;;;3.55;;
53833;SDS011;39735;51.432;5.482;2023-01-01T02:47:46;37.47;;;3.22;;
53833;SDS011;39735;51.432;5.482;2023-01-01T02:50:13;31.23;;;4.38;;
53833;SDS011;39735;51.432;5.482;2023-01-01T03:01:28;10.75;;;3.47;;
53833;SDS011;39735;51.432;5.482;2023-01-01T03:09:26;34.85;;;5.10;;
53833;SDS011;39735;51.432;5.482;2023-01-01T03:12:00;18.38;;;5.15;;
53833;SDS011;39735;51.432;5.482;2023-01-01T03:20:18;11.43;;;2.53;;
53833;SDS011;39735;51.432;5.482;2023-01-01T03:22:46;11.60;;;3.03;;
53833;SDS011;39735;51.432;5.482;2023-01-01T03:25:24;21.02;;;3.75;;
53833;SDS011;39735;51.432;5.482;2023-01-01T03:27:53;7.90;;;2.63;;
53833;SDS011;39735;51.432;5.482;2023-01-01T03:30:23;18.45;;;4.28;;
53833;SDS011;39735;51.432;5.482;2023-01-01T03:32:51;9.55;;;3.63;;
53833;SDS011;39735;51.432;5.482;2023-01-01T03:35:27;7.13;;;2.47;;
53833;SDS011;39735;51.432;5.482;2023-01-01T03:37:57;18.90;;;3.40;;
53833;SDS011;39735;51.432;5.482;2023-01-01T03:40:24;20.23;;;3.72;;
53833;SDS011;39735;51.432;5.482;2023-01-01T03:42:51;19.33;;;3.83;;
53833;SDS011;39735;51.432;5.482;2023-01-01T03:47:49;22.73;;;4.57;;
53833;SDS011;39735;51.432;5.482;2023-01-01T03:50:15;15.23;;;3.92;;
53833;SDS011;39735;51.432;5.482;2023-01-01T03:53:25;11.70;;;3.72;;
53833;SDS011;39735;51.432;5.482;2023-01-01T03:55:36;19.38;;;2.75;;
53833;SDS011;39735;51.432;5.482;2023-01-01T03:58:10;18.65;;;5.18;;
53833;SDS011;39735;51.432;5.482;2023-01-01T04:03:30;15.35;;;2.60;;
53833;SDS011;39735;51.432;5.482;2023-01-01T04:05:57;20.50;;;4.00;;
53833;SDS011;39735;51.432;5.482;2023-01-01T04:08:22;18.98;;;4.57;;
53833;SDS011;39735;51.432;5.482;2023-01-01T04:10:50;14.98;;;2.92;;
53833;SDS011;39735;51.432;5.482;2023-01-01T04:13:17;7.53;;;2.38;;
53833;SDS011;39735;51.432;5.482;2023-01-01T04:15:42;15.48;;;3.47;;
53833;SDS011;39735;51.432;5.482;2023-01-01T04:18:08;17.48;;;4.82;;
53833;SDS011;39735;51.432;5.482;2023-01-01T04:20:33;8.07;;;2.30;;
53833;SDS011;39735;51.432;5.482;2023-01-01T04:22:59;5.70;;;3.03;;
53833;SDS011;39735;51.432;5.482;2023-01-01T04:25:25;11.13;;;2.28;;
53833;SDS011;39735;51.432;5.482;2023-01-01T04:27:51;7.25;;;2.25;;
53833;SDS011;39735;51.432;5.482;2023-01-01T04:30:16;13.00;;;4.93;;
53833;SDS011;39735;51.432;5.482;2023-01-01T04:32:42;15.30;;;3.33;;
53833;SDS011;39735;51.432;5.482;2023-01-01T04:35:08;10.13;;;3.08;;
53833;SDS011;39735;51.432;5.482;2023-01-01T04:37:36;8.25;;;2.20;;
53833;SDS011;39735;51.432;5.482;2023-01-01T04:40:01;16.70;;;4.47;;
53833;SDS011;39735;51.432;5.482;2023-01-01T04:42:27;10.05;;;2.22;;
53833;SDS011;39735;51.432;5.482;2023-01-01T04:44:53;11.32;;;2.38;;
53833;SDS011;39735;51.432;5.482;2023-01-01T04:47:18;22.27;;;3.15;;
53833;SDS011;39735;51.432;5.482;2023-01-01T04:49:43;21.60;;;4.68;;
53833;SDS011;39735;51.432;5.482;2023-01-01T04:52:09;9.10;;;2.28;;
53833;SDS011;39735;51.432;5.482;2023-01-01T04:54:34;28.10;;;2.55;;
53833;SDS011;39735;51.432;5.482;2023-01-01T04:57:00;19.25;;;3.22;;
53833;SDS011;39735;51.432;5.482;2023-01-01T04:59:25;10.10;;;3.50;;
53833;SDS011;39735;51.432;5.482;2023-01-01T05:01:50;13.70;;;3.83;;
53833;SDS011;39735;51.432;5.482;2023-01-01T05:04:16;14.75;;;4.47;;
53833;SDS011;39735;51.432;5.482;2023-01-01T05:06:41;14.40;;;2.42;;
53833;SDS011;39735;51.432;5.482;2023-01-01T05:09:08;15.45;;;2.70;;
53833;SDS011;39735;51.432;5.482;2023-01-01T05:11:34;14.23;;;2.40;;
53833;SDS011;39735;51.432;5.482;2023-01-01T05:14:00;17.85;;;4.40;;
53833;SDS011;39735;51.432;5.482;2023-01-01T05:16:26;22.27;;;4.10;;
53833;SDS011;39735;51.432;5.482;2023-01-01T05:18:53;24.45;;;3.45;;
53833;SDS011;39735;51.432;5.482;2023-01-01T05:21:20;6.15;;;2.15;;
53833;SDS011;39735;51.432;5.482;2023-01-01T05:23:54;13.55;;;3.38;;
53833;SDS011;39735;51.432;5.482;2023-01-01T05:26:21;12.95;;;3.13;;
53833;SDS011;39735;51.432;5.482;2023-01-01T05:28:47;16.65;;;4.18;;
53833;SDS011;39735;51.432;5.482;2023-01-01T05:31:14;20.23;;;2.95;;
53833;SDS011;39735;51.432;5.482;2023-01-01T05:33:41;18.48;;;6.13;;
53833;SDS011;39735;51.432;5.482;2023-01-01T05:36:07;20.63;;;3.70;;
53833;SDS011;39735;51.432;5.482;2023-01-01T05:38:35;23.10;;;3.20;;
53833;SDS011;39735;51.432;5.482;2023-01-01T05:41:07;10.02;;;2.75;;
53833;SDS011;39735;51.432;5.482;2023-01-01T05:43:33;6.07;;;2.58;;
53833;SDS011;39735;51.432;5.482;2023-01-01T05:45:59;17.95;;;4.68;;
53833;SDS011;39735;51.432;5.482;2023-01-01T05:48:26;13.35;;;3.97;;
53833;SDS011;39735;51.432;5.482;2023-01-01T05:50:51;35.78;;;3.63;;
53833;SDS011;39735;51.432;5.482;2023-01-01T05:53:17;28.52;;;6.20;;
53833;SDS011;39735;51.432;5.482;2023-01-01T05:55:42;16.20;;;2.83;;
53833;SDS011;39735;51.432;5.482;2023-01-01T05:58:07;28.90;;;3.33;;
53833;SDS011;39735;51.432;5.482;2023-01-01T06:00:33;14.80;;;3.83;;
53833;SDS011;39735;51.432;5.482;2023-01-01T06:02:58;13.93;;;3.13;;
53833;SDS011;39735;51.432;5.482;2023-01-01T06:05:23;17.75;;;4.18;;
53833;SDS011;39735;51.432;5.482;2023-01-01T06:07:49;17.10;;;4.57;;
53833;SDS011;39735;51.432;5.482;2023-01-01T06:10:14;23.25;;;2.70;;
53833;SDS011;39735;51.432;5.482;2023-01-01T06:12:39;20.67;;;3.13;;
53833;SDS011;39735;51.432;5.482;2023-01-01T06:15:05;35.63;;;4.80;;
53833;SDS011;39735;51.432;5.482;2023-01-01T06:17:32;17.40;;;3.17;;
53833;SDS011;39735;51.432;5.482;2023-01-01T06:19:57;21.63;;;3.13;;
53833;SDS011;39735;51.432;5.482;2023-01-01T06:22:23;26.25;;;4.20;;
53833;SDS011;39735;51.432;5.482;2023-01-01T06:24:48;8.63;;;3.17;;
53833;SDS011;39735;51.432;5.482;2023-01-01T06:27:13;35.70;;;5.28;;
53833;SDS011;39735;51.432;5.482;2023-01-01T06:29:39;10.80;;;3.33;;
53833;SDS011;39735;51.432;5.482;2023-01-01T06:32:04;18.60;;;2.92;;
53833;SDS011;39735;51.432;5.482;2023-01-01T06:34:29;11.68;;;1.75;;
53833;SDS011;39735;51.432;5.482;2023-01-01T06:36:55;23.45;;;3.85;;
53833;SDS011;39735;51.432;5.482;2023-01-01T06:39:20;12.00;;;2.80;;
53833;SDS011;39735;51.432;5.482;2023-01-01T06:41:46;18.35;;;3.08;;
53833;SDS011;39735;51.432;5.482;2023-01-01T06:44:11;15.10;;;2.70;;
53833;SDS011;39735;51.432;5.482;2023-01-01T06:46:36;29.23;;;5.72;;
53833;SDS011;39735;51.432;5.482;2023-01-01T06:49:06;11.32;;;2.78;;
53833;SDS011;39735;51.432;5.482;2023-01-01T06:51:41;15.02;;;4.45;;
53833;SDS011;39735;51.432;5.482;2023-01-01T06:54:08;23.65;;;3.08;;
53833;SDS011;39735;51.432;5.482;2023-01-01T06:56:34;14.38;;;5.05;;
53833;SDS011;39735;51.432;5.482;2023-01-01T06:59:00;15.70;;;4.70;;
53833;SDS011;39735;51.432;5.482;2023-01-01T07:01:27;14.13;;;3.35;;
53833;SDS011;39735;51.432;5.482;2023-01-01T07:06:21;25.92;;;4.22;;
53833;SDS011;39735;51.432;5.482;2023-01-01T07:08:47;8.95;;;3.17;;
53833;SDS011;39735;51.432;5.482;2023-01-01T07:11:13;11.75;;;3.90;;
53833;SDS011;39735;51.432;5.482;2023-01-01T07:13:38;37.92;;;4.15;;
53833;SDS011;39735;51.432;5.482;2023-01-01T07:16:03;18.95;;;5.93;;
53833;SDS011;39735;51.432;5.482;2023-01-01T07:18:30;19.17;;;4.95;;
53833;SDS011;39735;51.432;5.482;2023-01-01T07:20:56;29.08;;;3.17;;
53833;SDS011;39735;51.432;5.482;2023-01-01T07:23:23;20.02;;;5.68;;
53833;SDS011;39735;51.432;5.482;2023-01-01T07:25:49;19.20;;;4.72;;
53833;SDS011;39735;51.432;5.482;2023-01-01T07:28:16;14.20;;;4.20;;
53833;SDS011;39735;51.432;5.482;2023-01-01T07:30:41;16.45;;;3.05;;
53833;SDS011;39735;51.432;5.482;2023-01-01T07:33:11;13.10;;;2.42;;
53833;SDS011;39735;51.432;5.482;2023-01-01T07:35:37;22.83;;;5.13;;
53833;SDS011;39735;51.432;5.482;2023-01-01T07:38:03;14.63;;;4.78;;
53833;SDS011;39735;51.432;5.482;2023-01-01T07:40:28;14.60;;;3.35;;
53833;SDS011;39735;51.432;5.482;2023-01-01T07:42:53;10.65;;;3.40;;
53833;SDS011;39735;51.432;5.482;2023-01-01T07:45:19;19.98;;;4.15;;
53833;SDS011;39735;51.432;5.482;2023-01-01T07:47:46;23.40;;;3.72;;
53833;SDS011;39735;51.432;5.482;2023-01-01T07:50:15;15.40;;;3.85;;
53833;SDS011;39735;51.432;5.482;2023-01-01T07:52:41;10.55;;;3.28;;
53833;SDS011;39735;51.432;5.482;2023-01-01T07:55:07;17.50;;;3.25;;
53833;SDS011;39735;51.432;5.482;2023-01-01T07:57:37;25.48;;;5.75;;
53833;SDS011;39735;51.432;5.482;2023-01-01T08:00:02;38.75;;;5.05;;
53833;SDS011;39735;51.432;5.482;2023-01-01T08:02:28;9.90;;;4.55;;
53833;SDS011;39735;51.432;5.482;2023-01-01T08:04:53;11.60;;;5.70;;
53833;SDS011;39735;51.432;5.482;2023-01-01T08:07:18;19.73;;;4.88;;
53833;SDS011;39735;51.432;5.482;2023-01-01T08:09:44;17.63;;;4.43;;
53833;SDS011;39735;51.432;5.482;2023-01-01T08:12:09;11.13;;;3.33;;
53833;SDS011;39735;51.432;5.482;2023-01-01T08:14:35;18.40;;;4.70;;
53833;SDS011;39735;51.432;5.482;2023-01-01T08:17:00;21.80;;;3.22;;
53833;SDS011;39735;51.432;5.482;2023-01-01T08:19:25;16.63;;;2.83;;
53833;SDS011;39735;51.432;5.482;2023-01-01T08:21:51;18.52;;;3.95;;
53833;SDS011;39735;51.432;5.482;2023-01-01T08:24:16;11.25;;;3.17;;
53833;SDS011;39735;51.432;5.482;2023-01-01T08:26:41;17.92;;;2.92;;
53833;SDS011;39735;51.432;5.482;2023-01-01T08:29:08;22.60;;;4.88;;
53833;SDS011;39735;51.432;5.482;2023-01-01T08:31:34;15.90;;;4.53;;
53833;SDS011;39735;51.432;5.482;2023-01-01T08:33:59;19.42;;;3.47;;
53833;SDS011;39735;51.432;5.482;2023-01-01T08:36:25;6.03;;;3.13;;
53833;SDS011;39735;51.432;5.482;2023-01-01T08:38:50;15.02;;;3.47;;
53833;SDS011;39735;51.432;5.482;2023-01-01T08:41:15;11.95;;;3.75;;
53833;SDS011;39735;51.432;5.482;2023-01-01T08:43:41;12.93;;;2.92;;
53833;SDS011;39735;51.432;5.482;2023-01-01T08:46:06;15.68;;;3.05;;
53833;SDS011;39735;51.432;5.482;2023-01-01T08:48:31;27.55;;;3.50;;
53833;SDS011;39735;51.432;5.482;2023-01-01T08:50:58;18.92;;;3.33;;
53833;SDS011;39735;51.432;5.482;2023-01-01T08:53:24;10.30;;;4.88;;
53833;SDS011;39735;51.432;5.482;2023-01-01T08:55:54;16.17;;;3.72;;
53833;SDS011;39735;51.432;5.482;2023-01-01T08:58:20;28.10;;;5.03;;
53833;SDS011;39735;51.432;5.482;2023-01-01T09:00:46;20.30;;;3.40;;
53833;SDS011;39735;51.432;5.482;2023-01-01T09:03:11;14.07;;;4.43;;
53833;SDS011;39735;51.432;5.482;2023-01-01T09:05:36;19.05;;;5.13;;
53833;SDS011;39735;51.432;5.482;2023-01-01T09:08:02;24.42;;;3.65;;
53833;SDS011;39735;51.432;5.482;2023-01-01T09:10:27;12.18;;;3.38;;
53833;SDS011;39735;51.432;5.482;2023-01-01T09:12:53;23.33;;;4.10;;
53833;SDS011;39735;51.432;5.482;2023-01-01T09:15:18;16.08;;;4.20;;
53833;SDS011;39735;51.432;5.482;2023-01-01T09:17:43;13.93;;;4.00;;
53833;SDS011;39735;51.432;5.482;2023-01-01T09:20:09;22.42;;;4.15;;
53833;SDS011;39735;51.432;5.482;2023-01-01T09:22:34;23.85;;;6.15;;
53833;SDS011;39735;51.432;5.482;2023-01-01T09:25:00;17.83;;;5.47;;
53833;SDS011;39735;51.432;5.482;2023-01-01T09:27:25;18.13;;;5.03;;
53833;SDS011;39735;51.432;5.482;2023-01-01T09:29:50;10.35;;;3.53;;
53833;SDS011;39735;51.432;5.482;2023-01-01T09:32:16;10.05;;;3.78;;
53833;SDS011;39735;51.432;5.482;2023-01-01T09:34:42;7.93;;;3.55;;
53833;SDS011;39735;51.432;5.482;2023-01-01T09:37:08;18.40;;;4.15;;
53833;SDS011;39735;51.432;5.482;2023-01-01T09:39:33;19.20;;;5.93;;
53833;SDS011;39735;51.432;5.482;2023-01-01T09:45:04;14.32;;;3.10;;
53833;SDS011;39735;51.432;5.482;2023-01-01T09:48:02;15.07;;;2.97;;
53833;SDS011;39735;51.432;5.482;2023-01-01T09:55:47;21.05;;;3.88;;
53833;SDS011;39735;51.432;5.482;2023-01-01T09:58:15;13.32;;;4.55;;
53833;SDS011;39735;51.432;5.482;2023-01-01T10:00:44;21.48;;;6.63;;
53833;SDS011;39735;51.432;5.482;2023-01-01T10:06:07;12.57;;;4.25;;
53833;SDS011;39735;51.432;5.482;2023-01-01T10:11:27;17.02;;;5.85;;
53833;SDS011;39735;51.432;5.482;2023-01-01T10:14:17;29.90;;;6.00;;
53833;SDS011;39735;51.432;5.482;2023-01-01T10:16:48;16.05;;;6.55;;
53833;SDS011;39735;51.432;5.482;2023-01-01T10:19:19;15.98;;;5.43;;
53833;SDS011;39735;51.432;5.482;2023-01-01T10:21:49;36.15;;;5.50;;
53833;SDS011;39735;51.432;5.482;2023-01-01T10:27:00;33.15;;;7.18;;
53833;SDS011;39735;51.432;5.482;2023-01-01T10:31:59;21.50;;;3.95;;
53833;SDS011;39735;51.432;5.482;2023-01-01T10:34:38;34.63;;;5.45;;
53833;SDS011;39735;51.432;5.482;2023-01-01T10:37:03;18.40;;;4.75;;
53833;SDS011;39735;51.432;5.482;2023-01-01T10:39:29;34.30;;;5.10;;
53833;SDS011;39735;51.432;5.482;2023-01-01T10:41:55;14.35;;;4.22;;
53833;SDS011;39735;51.432;5.482;2023-01-01T10:44:28;18.85;;;5.28;;
53833;SDS011;39735;51.432;5.482;2023-01-01T10:46:58;30.38;;;7.35;;
53833;SDS011;39735;51.432;5.482;2023-01-01T10:49:54;26.60;;;5.15;;
53833;SDS011;39735;51.432;5.482;2023-01-01T10:52:24;32.03;;;6.22;;
53833;SDS011;39735;51.432;5.482;2023-01-01T10:54:51;25.27;;;4.80;;
53833;SDS011;39735;51.432;5.482;2023-01-01T10:57:31;20.48;;;6.82;;
53833;SDS011;39735;51.432;5.482;2023-01-01T11:02:36;12.77;;;4.47;;
53833;SDS011;39735;51.432;5.482;2023-01-01T11:05:16;25.70;;;4.05;;
53833;SDS011;39735;51.432;5.482;2023-01-01T11:07:43;20.38;;;4.10;;
53833;SDS011;39735;51.432;5.482;2023-01-01T11:10:22;33.35;;;5.63;;
53833;SDS011;39735;51.432;5.482;2023-01-01T11:12:49;31.48;;;5.65;;
53833;SDS011;39735;51.432;5.482;2023-01-01T11:15:21;24.55;;;7.90;;
53833;SDS011;39735;51.432;5.482;2023-01-01T11:17:48;18.23;;;4.85;;
53833;SDS011;39735;51.432;5.482;2023-01-01T11:20:20;12.35;;;3.67;;
53833;SDS011;39735;51.432;5.482;2023-01-01T11:22:46;24.65;;;4.40;;
53833;SDS011;39735;51.432;5.482;2023-01-01T11:28:11;18.77;;;3.40;;
53833;SDS011;39735;51.432;5.482;2023-01-01T11:30:40;21.33;;;3.90;;
53833;SDS011;39735;51.432;5.482;2023-01-01T11:33:06;27.05;;;5.50;;
53833;SDS011;39735;51.432;5.482;2023-01-01T11:35:32;16.25;;;3.78;;
53833;SDS011;39735;51.432;5.482;2023-01-01T11:38:01;34.40;;;5.63;;
53833;SDS011;39735;51.432;5.482;2023-01-01T11:43:03;14.63;;;3.67;;
53833;SDS011;39735;51.432;5.482;2023-01-01T11:45:33;36.25;;;4.07;;
53833;SDS011;39735;51.432;5.482;2023-01-01T11:48:02;15.75;;;4.25;;
53833;SDS011;39735;51.432;5.482;2023-01-01T11:50:33;16.33;;;3.85;;
53833;SDS011;39735;51.432;5.482;2023-01-01T11:55:47;25.52;;;5.22;;
53833;SDS011;39735;51.432;5.482;2023-01-01T11:58:18;25.23;;;4.38;;
53833;SDS011;39735;51.432;5.482;2023-01-01T12:00:48;31.25;;;4.18;;
53833;SDS011;39735;51.432;5.482;2023-01-01T12:03:28;25.92;;;5.32;;
53833;SDS011;39735;51.432;5.482;2023-01-01T12:08:39;15.45;;;2.90;;
53833;SDS011;39735;51.432;5.482;2023-01-01T12:11:28;14.40;;;4.18;;
53833;SDS011;39735;51.432;5.482;2023-01-01T12:16:47;37.75;;;6.20;;
53833;SDS011;39735;51.432;5.482;2023-01-01T12:19:46;24.20;;;5.90;;
53833;SDS011;39735;51.432;5.482;2023-01-01T12:22:17;26.73;;;6.63;;
53833;SDS011;39735;51.432;5.482;2023-01-01T12:24:44;29.35;;;4.85;;
53833;SDS011;39735;51.432;5.482;2023-01-01T12:27:18;33.35;;;5.53;;
53833;SDS011;39735;51.432;5.482;2023-01-01T12:30:17;21.20;;;5.50;;
53833;SDS011;39735;51.432;5.482;2023-01-01T12:38:45;22.88;;;4.40;;
53833;SDS011;39735;51.432;5.482;2023-01-01T12:43:42;29.48;;;6.50;;
53833;SDS011;39735;51.432;5.482;2023-01-01T12:49:14;106.13;;;35.88;;
53833;SDS011;39735;51.432;5.482;2023-01-01T12:51:58;429.25;;;173.27;;
53833;SDS011;39735;51.432;5.482;2023-01-01T13:00:11;898.08;;;535.03;;
53833;SDS011;39735;51.432;5.482;2023-01-01T13:02:37;266.02;;;104.97;;
53833;SDS011;39735;51.432;5.482;2023-01-01T13:08:03;928.70;;;553.13;;
53833;SDS011;39735;51.432;5.482;2023-01-01T13:10:33;699.40;;;449.38;;
53833;SDS011;39735;51.432;5.482;2023-01-01T13:13:00;718.70;;;417.90;;
53833;SDS011;39735;51.432;5.482;2023-01-01T13:15:34;473.55;;;248.32;;
53833;SDS011;39735;51.432;5.482;2023-01-01T13:20:57;64.32;;;20.55;;
53833;SDS011;39735;51.432;5.482;2023-01-01T13:23:41;165.00;;;41.30;;
53833;SDS011;39735;51.432;5.482;2023-01-01T13:28:42;78.53;;;18.77;;
53833;SDS011;39735;51.432;5.482;2023-01-01T13:31:14;52.58;;;12.38;;
53833;SDS011;39735;51.432;5.482;2023-01-01T13:33:39;44.50;;;8.80;;
53833;SDS011;39735;51.432;5.482;2023-01-01T13:41:29;39.95;;;7.70;;
53833;SDS011;39735;51.432;5.482;2023-01-01T13:51:48;21.33;;;6.47;;
53833;SDS011;39735;51.432;5.482;2023-01-01T14:00:01;15.38;;;3.13;;
53833;SDS011;39735;51.432;5.482;2023-01-01T14:05:03;19.23;;;4.38;;
53833;SDS011;39735;51.432;5.482;2023-01-01T14:10:20;18.17;;;5.53;;
53833;SDS011;39735;51.432;5.482;2023-01-01T14:12:53;39.92;;;7.47;;
53833;SDS011;39735;51.432;5.482;2023-01-01T14:15:28;22.50;;;5.10;;
53833;SDS011;39735;51.432;5.482;2023-01-01T14:17:55;45.08;;;8.73;;
53833;SDS011;39735;51.432;5.482;2023-01-01T14:20:26;33.17;;;5.22;;
53833;SDS011;39735;51.432;5.482;2023-01-01T14:23:11;29.13;;;5.00;;
53833;SDS011;39735;51.432;5.482;2023-01-01T14:25:39;30.65;;;6.03;;
53833;SDS011;39735;51.432;5.482;2023-01-01T14:28:10;27.73;;;5.07;;
53833;SDS011;39735;51.432;5.482;2023-01-01T14:30:39;37.60;;;5.00;;
53833;SDS011;39735;51.432;5.482;2023-01-01T14:33:18;28.45;;;5.13;;
53833;SDS011;39735;51.432;5.482;2023-01-01T14:35:56;24.92;;;3.85;;
53833;SDS011;39735;51.432;5.482;2023-01-01T14:38:23;31.00;;;6.28;;
53833;SDS011;39735;51.432;5.482;2023-01-01T14:41:19;21.48;;;5.55;;
53833;SDS011;39735;51.432;5.482;2023-01-01T14:44:08;38.17;;;8.57;;
53833;SDS011;39735;51.432;5.482;2023-01-01T14:46:38;20.48;;;5.47;;
53833;SDS011;39735;51.432;5.482;2023-01-01T14:49:17;17.92;;;4.97;;
53833;SDS011;39735;51.432;5.482;2023-01-01T14:51:54;35.13;;;4.95;;
53833;SDS011;39735;51.432;5.482;2023-01-01T14:54:22;20.58;;;3.95;;
53833;SDS011;39735;51.432;5.482;2023-01-01T14:56:50;36.78;;;8.63;;
53833;SDS011;39735;51.432;5.482;2023-01-01T14:59:31;29.92;;;5.93;;
53833;SDS011;39735;51.432;5.482;2023-01-01T15:04:46;31.40;;;5.50;;
53833;SDS011;39735;51.432;5.482;2023-01-01T15:07:19;20.88;;;7.07;;
53833;SDS011;39735;51.432;5.482;2023-01-01T15:09:49;38.40;;;8.00;;
53833;SDS011;39735;51.432;5.482;2023-01-01T15:12:15;31.42;;;5.30;;
53833;SDS011;39735;51.432;5.482;2023-01-01T15:14:44;30.33;;;6.50;;
53833;SDS011;39735;51.432;5.482;2023-01-01T15:17:11;20.45;;;4.28;;
53833;SDS011;39735;51.432;5.482;2023-01-01T15:19:38;47.55;;;11.77;;
53833;SDS011;39735;51.432;5.482;2023-01-01T15:24:56;20.00;;;4.85;;
53833;SDS011;39735;51.432;5.482;2023-01-01T15:27:32;23.25;;;6.20;;
53833;SDS011;39735;51.432;5.482;2023-01-01T15:29:59;17.23;;;4.30;;
53833;SDS011;39735;51.432;5.482;2023-01-01T15:32:29;51.95;;;9.00;;
53833;SDS011;39735;51.432;5.482;2023-01-01T15:34:57;28.02;;;7.68;;
53833;SDS011;39735;51.432;5.482;2023-01-01T15:39:55;26.70;;;5.68;;
53833;SDS011;39735;51.432;5.482;2023-01-01T15:42:33;15.38;;;3.85;;
53833;SDS011;39735;51.432;5.482;2023-01-01T15:47:38;32.38;;;6.22;;
53833;SDS011;39735;51.432;5.482;2023-01-01T15:50:08;32.97;;;4.53;;
53833;SDS011;39735;51.432;5.482;2023-01-01T15:52:48;22.48;;;7.63;;
53833;SDS011;39735;51.432;5.482;2023-01-01T15:55:15;32.70;;;6.30;;
53833;SDS011;39735;51.432;5.482;2023-01-01T15:57:45;33.60;;;4.43;;
53833;SDS011;39735;51.432;5.482;2023-01-01T16:00:22;30.67;;;4.82;;
53833;SDS011;39735;51.432;5.482;2023-01-01T16:02:49;27.33;;;5.93;;
53833;SDS011;39735;51.432;5.482;2023-01-01T16:05:17;14.73;;;4.65;;
53833;SDS011;39735;51.432;5.482;2023-01-01T16:08:02;19.90;;;4.95;;
53833;SDS011;39735;51.432;5.482;2023-01-01T16:10:29;27.23;;;5.47;;
53833;SDS011;39735;51.432;5.482;2023-01-01T16:12:55;23.60;;;6.82;;
53833;SDS011;39735;51.432;5.482;2023-01-01T16:15:21;17.02;;;4.57;;
53833;SDS011;39735;51.432;5.482;2023-01-01T16:17:47;38.92;;;10.25;;
53833;SDS011;39735;51.432;5.482;2023-01-01T16:20:12;41.30;;;11.07;;
53833;SDS011;39735;51.432;5.482;2023-01-01T16:22:39;49.92;;;10.25;;
53833;SDS011;39735;51.432;5.482;2023-01-01T16:25:15;27.77;;;6.78;;
53833;SDS011;39735;51.432;5.482;2023-01-01T16:27:44;27.38;;;6.53;;
53833;SDS011;39735;51.432;5.482;2023-01-01T16:30:11;17.67;;;4.60;;
53833;SDS011;39735;51.432;5.482;2023-01-01T16:32:37;19.42;;;4.88;;
53833;SDS011;39735;51.432;5.482;2023-01-01T16:35:03;12.95;;;4.35;;
53833;SDS011;39735;51.432;5.482;2023-01-01T16:37:29;25.77;;;6.38;;
53833;SDS011;39735;51.432;5.482;2023-01-01T16:39:57;16.33;;;4.30;;
53833;SDS011;39735;51.432;5.482;2023-01-01T16:42:23;16.95;;;5.72;;
53833;SDS011;39735;51.432;5.482;2023-01-01T16:44:48;24.90;;;5.30;;
53833;SDS011;39735;51.432;5.482;2023-01-01T16:47:14;23.25;;;5.95;;
53833;SDS011;39735;51.432;5.482;2023-01-01T16:49:39;25.25;;;6.38;;
53833;SDS011;39735;51.432;5.482;2023-01-01T16:52:05;21.08;;;6.28;;
53833;SDS011;39735;51.432;5.482;2023-01-01T16:54:30;18.85;;;6.50;;